Tur — UGLB — position and weather

sailwx.info

Track history (hours):
 
Tides and Currents Weather Stations Pressure Air Temp Water Temp Dewpoint Dewpoint Depression Visibility Wind Speed Wind Dir Waves Ship Positions

Tur

Last reported at 2017-Jun-25 00:14 UTC. Time now 2017-Jun-26 08:54 UTC.
Position N 58°50' E 023°12'.

Length 36 m; draft 4.5 m.

Type: Tug. MMSI: 273444990.

Date/timePositionNaut miles runAvg speedWind from/ knotsBaromVisibWave heightAir tempDewpointWater temp
2017-Jun-25 00:14N 58°50' E 023°12'1 5.3
2017-Jun-25 00:00N 58°51' E 023°11'7 4.9
2017-Jun-24 22:32N 58°58' E 023°07'1 4.5
2017-Jun-24 22:22N 58°59' E 023°06'2 4.6
2017-Jun-24 21:59N 59°00' E 023°06'2 5.1
2017-Jun-24 21:30N 59°03' E 023°04'3 5.8
2017-Jun-24 20:56N 59°06' E 023°01'3 8.0
2017-Jun-24 20:30N 59°08' E 022°57'4 7.6
2017-Jun-24 20:00N 59°12' E 022°60'4 7.8
2017-Jun-24 19:30N 59°15' E 023°03'4 7.9
2017-Jun-24 19:00N 59°19' E 023°07'4 7.6
2017-Jun-24 18:31N 59°22' E 023°11'4 7.6
2017-Jun-24 18:00N 59°24' E 023°17'4 7.6
2017-Jun-24 17:31N 59°27' E 023°23'4 7.6
2017-Jun-24 17:00N 59°29' E 023°29'4 7.7
2017-Jun-24 16:30N 59°31' E 023°35'4 8.0
2017-Jun-24 16:00N 59°33' E 023°41'4 8.3
2017-Jun-24 15:31N 59°36' E 023°48'4 8.3
2017-Jun-24 15:00N 59°38' E 023°54'8 8.5
2017-Jun-24 14:01N 59°43' E 024°08'4 8.5
2017-Jun-24 13:30N 59°45' E 024°16'4 8.4
2017-Jun-24 13:00N 59°47' E 024°23'4 8.4
2017-Jun-24 12:31N 59°48' E 024°31'4 8.4
2017-Jun-24 12:01N 59°48' E 024°40'4 8.2
2017-Jun-24 11:30N 59°49' E 024°48'4 8.2
2017-Jun-24 11:01N 59°50' E 024°56'4 8.1
2017-Jun-24 10:31N 59°51' E 025°03'4 8.0
2017-Jun-24 10:00N 59°52' E 025°11'4 8.1
2017-Jun-24 09:30N 59°52' E 025°19'4 8.0
2017-Jun-24 09:01N 59°53' E 025°27'4 8.0
2017-Jun-24 08:31N 59°54' E 025°35'4 8.0
2017-Jun-24 08:00N 59°55' E 025°43'4 8.0
2017-Jun-24 07:30N 59°56' E 025°50'4 8.1
2017-Jun-24 07:00N 59°57' E 025°58'4 8.1
2017-Jun-24 06:31N 59°58' E 026°06'4 8.1
2017-Jun-24 06:00N 59°59' E 026°14'4 8.1
2017-Jun-24 05:31N 59°60' E 026°22'4 8.1
2017-Jun-24 05:01N 60°01' E 026°29'4 8.1
2017-Jun-24 04:31N 60°01' E 026°37'4 8.0
2017-Jun-24 04:01N 60°01' E 026°45'4 8.2
2017-Jun-24 03:31N 60°00' E 026°54'4 7.2
2017-Jun-24 03:00N 59°60' E 027°01'3 6.8
2017-Jun-24 02:30N 60°01' E 027°07'4 7.2
2017-Jun-24 02:00N 60°03' E 027°13'4 7.1
2017-Jun-24 01:30N 60°04' E 027°19'4 7.1
2017-Jun-24 01:00N 60°06' E 027°26'4 7.1
2017-Jun-24 00:30N 60°08' E 027°31'4 7.2
2017-Jun-24 00:00N 60°10' E 027°38'4 7.2
2017-Jun-23 23:30N 60°12' E 027°44'3 6.8
2017-Jun-23 23:01N 60°12' E 027°51'4 7.1
2017-Jun-23 22:31N 60°11' E 027°57'4 7.1
2017-Jun-23 22:00N 60°10' E 028°04'3 7.0
2017-Jun-23 21:31N 60°09' E 028°11'4 7.0
2017-Jun-23 21:00N 60°08' E 028°18'4 7.0
2017-Jun-23 20:30N 60°05' E 028°23'3 6.9
2017-Jun-23 20:00N 60°04' E 028°29'3 6.8
2017-Jun-23 19:30N 60°03' E 028°36'4 7.0
2017-Jun-23 19:00N 60°03' E 028°43'4 7.2
2017-Jun-23 18:30N 60°03' E 028°50'4 7.1
2017-Jun-23 18:01N 60°02' E 028°57'4 6.9
2017-Jun-23 17:24N 60°02' E 029°05'19 5.0
2017-Jun-23 13:37N 59°59' E 029°43'0 0.1
2017-Jun-23 11:52N 59°59' E 029°43'2 0.1
2017-Jun-22 08:42N 59°59' E 029°47'0 0.0
2017-Jun-22 08:30N 59°59' E 029°47'0 0.0
2017-Jun-22 08:00N 59°59' E 029°47'0 0.2
2017-Jun-22 07:26N 59°59' E 029°47'3 0.6
2017-Jun-22 02:47N 60°00' E 029°43'0 0.0
2017-Jun-22 01:00N 60°00' E 029°43'0 0.0
2017-Jun-21 17:11N 60°00' E 029°43'0 0.0
2017-Jun-21 16:32N 60°00' E 029°43'0 0.0
2017-Jun-21 16:21N 60°00' E 029°43'0 0.0
2017-Jun-21 15:59N 60°00' E 029°43'0 0.0
2017-Jun-21 15:30N 60°00' E 029°43'0 0.2
2017-Jun-21 14:57N 60°00' E 029°43'0 0.1
2017-Jun-21 13:18N 60°00' E 029°43'0 0.0
2017-Jun-21 12:53N 60°00' E 029°43'0 0.0
2017-Jun-21 10:35N 60°00' E 029°43'0 0.0
2017-Jun-21 10:17N 60°00' E 029°43'0 0.0
2017-Jun-21 10:00N 60°00' E 029°43'0 0.0
2017-Jun-21 07:22N 60°00' E 029°43'0 0.0
2017-Jun-21 02:27N 60°00' E 029°43'0 0.0
2017-Jun-21 01:48N 60°00' E 029°43'0 0.0
2017-Jun-21 01:29N 60°00' E 029°43'0 0.0
2017-Jun-20 17:35N 60°00' E 029°43'0 0.0
2017-Jun-20 17:22N 60°00' E 029°43'0 0.0
2017-Jun-20 17:00N 60°00' E 029°43'0 0.0
2017-Jun-20 16:30N 60°00' E 029°43'0 0.0
2017-Jun-20 16:00N 60°00' E 029°43'0 0.0
2017-Jun-20 15:22N 60°00' E 029°43'0 0.0
2017-Jun-20 12:43N 60°00' E 029°43'0 0.0
2017-Jun-20 12:27N 60°00' E 029°43'0 0.0
2017-Jun-20 10:47N 60°00' E 029°43'0 0.0
2017-Jun-20 09:28N 60°00' E 029°43'0 0.0
2017-Jun-20 08:28N 60°00' E 029°43'0 0.0
2017-Jun-18 08:15N 60°00' E 029°43'0 0.0
2017-Jun-18 08:00N 60°00' E 029°43'0 0.0
2017-Jun-18 07:30N 60°00' E 029°43'0 0.0
2017-Jun-18 07:00N 60°00' E 029°43'0 0.0
2017-Jun-18 06:30N 60°00' E 029°43'0 0.0
2017-Jun-18 06:00N 60°00' E 029°43'0 0.0
2017-Jun-18 03:52N 60°00' E 029°43'0 0.0
2017-Jun-18 03:30N 60°00' E 029°43'0 0.0
2017-Jun-18 03:00N 60°00' E 029°43'0 0.0
2017-Jun-18 02:30N 60°00' E 029°43'0 0.0
2017-Jun-18 02:00N 60°00' E 029°43'0 0.0
2017-Jun-18 01:29N 60°00' E 029°43'0 0.0
2017-Jun-18 00:48N 60°00' E 029°43'0 0.0
2017-Jun-18 00:28N 60°00' E 029°43'0 0.0
2017-Jun-17 23:57N 60°00' E 029°43'0 0.0
2017-Jun-17 23:30N 60°00' E 029°43'0 0.0
2017-Jun-17 22:56N 60°00' E 029°43'0 0.0
2017-Jun-17 22:30N 60°00' E 029°43'0 0.0
2017-Jun-17 21:58N 60°00' E 029°43'0 0.0
2017-Jun-17 21:30N 60°00' E 029°43'0 0.0
2017-Jun-17 20:59N 60°00' E 029°43'0 0.0
2017-Jun-17 20:30N 60°00' E 029°43'0 0.0
2017-Jun-17 20:00N 60°00' E 029°43'0 0.0
2017-Jun-17 19:30N 60°00' E 029°43'0 0.0
2017-Jun-17 18:58N 60°00' E 029°43'0 0.0
2017-Jun-17 18:30N 60°00' E 029°43'0 0.0
2017-Jun-17 18:00N 60°00' E 029°43'0 0.0
2017-Jun-17 17:30N 60°00' E 029°43'0 0.0
2017-Jun-17 17:00N 60°00' E 029°43'0 0.0
2017-Jun-17 16:30N 60°00' E 029°43'0 0.0
2017-Jun-17 16:00N 60°00' E 029°43'0 0.0
2017-Jun-17 15:30N 60°00' E 029°43'0 0.0
2017-Jun-17 15:01N 60°00' E 029°43'0 0.0
2017-Jun-17 14:00N 60°00' E 029°43'0 0.0
2017-Jun-17 13:30N 60°00' E 029°43'0 0.0
2017-Jun-17 13:00N 60°00' E 029°43'0 0.0
2017-Jun-17 12:30N 60°00' E 029°43'0 0.0
2017-Jun-17 12:00N 60°00' E 029°43'0 0.0
2017-Jun-17 11:30N 60°00' E 029°43'0 0.0
2017-Jun-17 11:00N 60°00' E 029°43'0 0.0
2017-Jun-17 10:30N 60°00' E 029°43'0 0.0
2017-Jun-17 10:00N 60°00' E 029°43'0 0.0
2017-Jun-17 09:30N 60°00' E 029°43'0 0.0
2017-Jun-17 09:00N 60°00' E 029°43'0 0.0
2017-Jun-17 08:30N 60°00' E 029°43'0 0.0
2017-Jun-17 08:00N 60°00' E 029°43'0 0.0
2017-Jun-17 07:31N 60°00' E 029°43'0 0.0
2017-Jun-17 07:00N 60°00' E 029°43'0 0.0
2017-Jun-17 06:30N 60°00' E 029°43'0 0.0
2017-Jun-17 06:00N 60°00' E 029°43'0 0.0
2017-Jun-17 05:30N 60°00' E 029°43'0 0.0
2017-Jun-17 05:00N 60°00' E 029°43'0 0.0
2017-Jun-17 04:30N 60°00' E 029°43'0 0.0
2017-Jun-17 04:01N 60°00' E 029°43'0 0.0
2017-Jun-17 03:30N 60°00' E 029°43'0 0.0
2017-Jun-17 03:00N 60°00' E 029°43'0 0.0
2017-Jun-17 02:30N 60°00' E 029°43'0 0.0
2017-Jun-17 02:01N 60°00' E 029°43'0 0.0
2017-Jun-17 01:30N 60°00' E 029°43'0 0.0
2017-Jun-17 01:01N 60°00' E 029°43'0 0.0
2017-Jun-17 00:30N 60°00' E 029°43'0 0.0
2017-Jun-17 00:00N 60°00' E 029°43'0 0.0
2017-Jun-16 23:19N 60°00' E 029°43'0 0.0
2017-Jun-16 23:00N 60°00' E 029°43'0 0.0
2017-Jun-16 22:30N 60°00' E 029°43'0 0.0
2017-Jun-16 22:00N 60°00' E 029°43'0 0.0
2017-Jun-16 21:30N 60°00' E 029°43'0 0.0
2017-Jun-16 21:00N 60°00' E 029°43'0 0.0
2017-Jun-16 20:30N 60°00' E 029°43'0 0.0
2017-Jun-16 20:00N 60°00' E 029°43'0 0.0
2017-Jun-16 19:31N 60°00' E 029°43'0 0.0
2017-Jun-16 19:00N 60°00' E 029°43'0 0.0
2017-Jun-16 18:30N 60°00' E 029°43'0 0.0
2017-Jun-16 18:01N 60°00' E 029°43'0 0.0
2017-Jun-16 17:29N 60°00' E 029°43'0 0.0
2017-Jun-16 16:59N 60°00' E 029°43'0 0.0
2017-Jun-16 16:30N 60°00' E 029°43'0 0.0
2017-Jun-16 16:00N 60°00' E 029°43'0 0.0
2017-Jun-16 15:27N 60°00' E 029°43'0 0.0
2017-Jun-16 14:43N 60°00' E 029°43'0 0.0
2017-Jun-16 14:30N 60°00' E 029°43'0 0.0
2017-Jun-16 13:30N 60°00' E 029°43'0 0.0
2017-Jun-16 13:00N 60°00' E 029°43'0 0.0
2017-Jun-16 12:30N 60°00' E 029°43'0 0.0
2017-Jun-16 12:00N 60°00' E 029°43'0 0.0
2017-Jun-16 11:30N 60°00' E 029°43'0 0.0
2017-Jun-16 11:00N 60°00' E 029°43'0 0.0
2017-Jun-16 10:26N 60°00' E 029°43'0 0.0
2017-Jun-16 09:48N 60°00' E 029°43'0 0.0
2017-Jun-16 09:30N 60°00' E 029°43'0 0.0
2017-Jun-16 09:01N 60°00' E 029°43'0 0.0
2017-Jun-16 08:29N 60°00' E 029°43'0 0.0
2017-Jun-16 08:00N 60°00' E 029°43'0 0.0
2017-Jun-16 07:30N 60°00' E 029°43'0 0.0
2017-Jun-16 07:00N 60°00' E 029°43'0 0.0
2017-Jun-16 06:30N 60°00' E 029°43'0 0.0
2017-Jun-16 06:00N 60°00' E 029°43'0 0.0
2017-Jun-16 05:30N 60°00' E 029°43'0 0.0
2017-Jun-16 04:35N 60°00' E 029°43'0 0.0
2017-Jun-16 04:23N 60°00' E 029°43'0 0.0
2017-Jun-16 04:00N 60°00' E 029°43'0 0.0
2017-Jun-16 03:30N 60°00' E 029°43'0 0.0
2017-Jun-16 03:00N 60°00' E 029°43'0 0.0
2017-Jun-16 02:30N 60°00' E 029°43'0 0.0
2017-Jun-16 02:00N 60°00' E 029°43'0 0.0
2017-Jun-16 01:30N 60°00' E 029°43'0 0.0
2017-Jun-16 01:00N 60°00' E 029°43'0 0.0
2017-Jun-16 00:30N 60°00' E 029°43'0 0.0
2017-Jun-16 00:00N 60°00' E 029°43'0 0.0
2017-Jun-15 23:30N 60°00' E 029°43'0 0.0
2017-Jun-15 22:48N 60°00' E 029°43'0 0.0
2017-Jun-15 22:27N 60°00' E 029°43'0 0.0
2017-Jun-15 21:59N 60°00' E 029°43'0 0.0
2017-Jun-15 21:29N 60°00' E 029°43'0 0.0
2017-Jun-15 20:49N 60°00' E 029°43'0 0.0
2017-Jun-15 20:30N 60°00' E 029°43'0 0.0
2017-Jun-15 19:04N 60°00' E 029°43'0 0.0
2017-Jun-15 18:55N 60°00' E 029°43'0 0.0
2017-Jun-15 18:30N 60°00' E 029°43'0 0.0
2017-Jun-15 17:56N 60°00' E 029°43'0 0.0
2017-Jun-15 17:31N 60°00' E 029°43'0 0.0
2017-Jun-15 17:00N 60°00' E 029°43'0 0.0
2017-Jun-15 16:30N 60°00' E 029°43'0 0.0
2017-Jun-15 16:00N 60°00' E 029°43'0 0.0
2017-Jun-15 15:30N 60°00' E 029°43'0 0.0
2017-Jun-15 15:00N 60°00' E 029°43'0 0.0
2017-Jun-15 13:55N 60°00' E 029°43'0 0.0
2017-Jun-15 13:31N 60°00' E 029°43'0 0.0
2017-Jun-15 13:00N 60°00' E 029°43'0 0.0
2017-Jun-15 12:30N 60°00' E 029°43'0 0.0
2017-Jun-15 12:00N 60°00' E 029°43'0 0.0
2017-Jun-15 11:30N 60°00' E 029°43'0 0.0
2017-Jun-15 09:57N 60°00' E 029°43'0 0.0
2017-Jun-15 09:30N 60°00' E 029°43'0 0.0
2017-Jun-15 09:00N 60°00' E 029°43'0 0.0
2017-Jun-15 08:29N 60°00' E 029°43'0 0.0
2017-Jun-15 07:48N 60°00' E 029°43'0 0.0
2017-Jun-15 07:30N 60°00' E 029°43'0 0.0
2017-Jun-15 07:00N 60°00' E 029°43'0 0.0
2017-Jun-15 06:26N 60°00' E 029°43'0 0.0
2017-Jun-15 05:52N 60°00' E 029°43'0 0.0
2017-Jun-15 05:30N 60°00' E 029°43'0 0.0
2017-Jun-15 04:59N 60°00' E 029°43'0 0.0
2017-Jun-15 04:25N 60°00' E 029°43'0 0.0
2017-Jun-15 04:00N 60°00' E 029°43'0 0.0
2017-Jun-15 03:30N 60°00' E 029°43'0 0.0
2017-Jun-15 03:00N 60°00' E 029°43'0 0.0
2017-Jun-15 02:30N 60°00' E 029°43'0 0.0
2017-Jun-15 02:01N 60°00' E 029°43'0 0.0
2017-Jun-15 01:30N 60°00' E 029°43'0 0.0
2017-Jun-15 01:00N 60°00' E 029°43'0 0.0
2017-Jun-15 00:29N 60°00' E 029°43'  
Track history (hours):
 
Tides and Currents Weather Stations Pressure Air Temp Water Temp Dewpoint Dewpoint Depression Visibility Wind Speed Wind Dir Waves Ship Positions

Tur

Last reported at 2017-Jun-25 00:14 UTC. Time now 2017-Jun-26 08:54 UTC.
Position N 58°50' E 023°12'.

Length 36 m; draft 4.5 m.

Type: Tug. MMSI: 273444990.

Date/timePositionNaut miles runAvg speedWind from/ knotsBaromVisibWave heightAir tempDewpointWater temp
2017-Jun-25 00:14N 58°50' E 023°12'1 5.3
2017-Jun-25 00:00N 58°51' E 023°11'7 4.9
2017-Jun-24 22:32N 58°58' E 023°07'1 4.5
2017-Jun-24 22:22N 58°59' E 023°06'2 4.6
2017-Jun-24 21:59N 59°00' E 023°06'2 5.1
2017-Jun-24 21:30N 59°03' E 023°04'3 5.8
2017-Jun-24 20:56N 59°06' E 023°01'3 8.0
2017-Jun-24 20:30N 59°08' E 022°57'4 7.6
2017-Jun-24 20:00N 59°12' E 022°60'4 7.8
2017-Jun-24 19:30N 59°15' E 023°03'4 7.9
2017-Jun-24 19:00N 59°19' E 023°07'4 7.6
2017-Jun-24 18:31N 59°22' E 023°11'4 7.6
2017-Jun-24 18:00N 59°24' E 023°17'4 7.6
2017-Jun-24 17:31N 59°27' E 023°23'4 7.6
2017-Jun-24 17:00N 59°29' E 023°29'4 7.7
2017-Jun-24 16:30N 59°31' E 023°35'4 8.0
2017-Jun-24 16:00N 59°33' E 023°41'4 8.3
2017-Jun-24 15:31N 59°36' E 023°48'4 8.3
2017-Jun-24 15:00N 59°38' E 023°54'8 8.5
2017-Jun-24 14:01N 59°43' E 024°08'4 8.5
2017-Jun-24 13:30N 59°45' E 024°16'4 8.4
2017-Jun-24 13:00N 59°47' E 024°23'4 8.4
2017-Jun-24 12:31N 59°48' E 024°31'4 8.4
2017-Jun-24 12:01N 59°48' E 024°40'4 8.2
2017-Jun-24 11:30N 59°49' E 024°48'4 8.2
2017-Jun-24 11:01N 59°50' E 024°56'4 8.1
2017-Jun-24 10:31N 59°51' E 025°03'4 8.0
2017-Jun-24 10:00N 59°52' E 025°11'4 8.1
2017-Jun-24 09:30N 59°52' E 025°19'4 8.0
2017-Jun-24 09:01N 59°53' E 025°27'4 8.0
2017-Jun-24 08:31N 59°54' E 025°35'4 8.0
2017-Jun-24 08:00N 59°55' E 025°43'4 8.0
2017-Jun-24 07:30N 59°56' E 025°50'4 8.1
2017-Jun-24 07:00N 59°57' E 025°58'4 8.1
2017-Jun-24 06:31N 59°58' E 026°06'4 8.1
2017-Jun-24 06:00N 59°59' E 026°14'4 8.1
2017-Jun-24 05:31N 59°60' E 026°22'4 8.1
2017-Jun-24 05:01N 60°01' E 026°29'4 8.1
2017-Jun-24 04:31N 60°01' E 026°37'4 8.0
2017-Jun-24 04:01N 60°01' E 026°45'4 8.2
2017-Jun-24 03:31N 60°00' E 026°54'4 7.2
2017-Jun-24 03:00N 59°60' E 027°01'3 6.8
2017-Jun-24 02:30N 60°01' E 027°07'4 7.2
2017-Jun-24 02:00N 60°03' E 027°13'4 7.1
2017-Jun-24 01:30N 60°04' E 027°19'4 7.1
2017-Jun-24 01:00N 60°06' E 027°26'4 7.1
2017-Jun-24 00:30N 60°08' E 027°31'4 7.2
2017-Jun-24 00:00N 60°10' E 027°38'4 7.2
2017-Jun-23 23:30N 60°12' E 027°44'3 6.8
2017-Jun-23 23:01N 60°12' E 027°51'4 7.1
2017-Jun-23 22:31N 60°11' E 027°57'4 7.1
2017-Jun-23 22:00N 60°10' E 028°04'3 7.0
2017-Jun-23 21:31N 60°09' E 028°11'4 7.0
2017-Jun-23 21:00N 60°08' E 028°18'4 7.0
2017-Jun-23 20:30N 60°05' E 028°23'3 6.9
2017-Jun-23 20:00N 60°04' E 028°29'3 6.8
2017-Jun-23 19:30N 60°03' E 028°36'4 7.0
2017-Jun-23 19:00N 60°03' E 028°43'4 7.2
2017-Jun-23 18:30N 60°03' E 028°50'4 7.1
2017-Jun-23 18:01N 60°02' E 028°57'4 6.9
2017-Jun-23 17:24N 60°02' E 029°05'19 5.0
2017-Jun-23 13:37N 59°59' E 029°43'0 0.1
2017-Jun-23 11:52N 59°59' E 029°43'2 0.1
2017-Jun-22 08:42N 59°59' E 029°47'0 0.0
2017-Jun-22 08:30N 59°59' E 029°47'0 0.0
2017-Jun-22 08:00N 59°59' E 029°47'0 0.2
2017-Jun-22 07:26N 59°59' E 029°47'3 0.6
2017-Jun-22 02:47N 60°00' E 029°43'0 0.0
2017-Jun-22 01:00N 60°00' E 029°43'0 0.0
2017-Jun-21 17:11N 60°00' E 029°43'0 0.0
2017-Jun-21 16:32N 60°00' E 029°43'0 0.0
2017-Jun-21 16:21N 60°00' E 029°43'0 0.0
2017-Jun-21 15:59N 60°00' E 029°43'0 0.0
2017-Jun-21 15:30N 60°00' E 029°43'0 0.2
2017-Jun-21 14:57N 60°00' E 029°43'0 0.1
2017-Jun-21 13:18N 60°00' E 029°43'0 0.0
2017-Jun-21 12:53N 60°00' E 029°43'0 0.0
2017-Jun-21 10:35N 60°00' E 029°43'0 0.0
2017-Jun-21 10:17N 60°00' E 029°43'0 0.0
2017-Jun-21 10:00N 60°00' E 029°43'0 0.0
2017-Jun-21 07:22N 60°00' E 029°43'0 0.0
2017-Jun-21 02:27N 60°00' E 029°43'0 0.0
2017-Jun-21 01:48N 60°00' E 029°43'0 0.0
2017-Jun-21 01:29N 60°00' E 029°43'0 0.0
2017-Jun-20 17:35N 60°00' E 029°43'0 0.0
2017-Jun-20 17:22N 60°00' E 029°43'0 0.0
2017-Jun-20 17:00N 60°00' E 029°43'0 0.0
2017-Jun-20 16:30N 60°00' E 029°43'0 0.0
2017-Jun-20 16:00N 60°00' E 029°43'0 0.0
2017-Jun-20 15:22N 60°00' E 029°43'0 0.0
2017-Jun-20 12:43N 60°00' E 029°43'0 0.0
2017-Jun-20 12:27N 60°00' E 029°43'0 0.0
2017-Jun-20 10:47N 60°00' E 029°43'0 0.0
2017-Jun-20 09:28N 60°00' E 029°43'0 0.0
2017-Jun-20 08:28N 60°00' E 029°43'0 0.0
2017-Jun-18 08:15N 60°00' E 029°43'0 0.0
2017-Jun-18 08:00N 60°00' E 029°43'0 0.0
2017-Jun-18 07:30N 60°00' E 029°43'0 0.0
2017-Jun-18 07:00N 60°00' E 029°43'0 0.0
2017-Jun-18 06:30N 60°00' E 029°43'0 0.0
2017-Jun-18 06:00N 60°00' E 029°43'0 0.0
2017-Jun-18 03:52N 60°00' E 029°43'0 0.0
2017-Jun-18 03:30N 60°00' E 029°43'0 0.0
2017-Jun-18 03:00N 60°00' E 029°43'0 0.0
2017-Jun-18 02:30N 60°00' E 029°43'0 0.0
2017-Jun-18 02:00N 60°00' E 029°43'0 0.0
2017-Jun-18 01:29N 60°00' E 029°43'0 0.0
2017-Jun-18 00:48N 60°00' E 029°43'0 0.0
2017-Jun-18 00:28N 60°00' E 029°43'0 0.0
2017-Jun-17 23:57N 60°00' E 029°43'0 0.0
2017-Jun-17 23:30N 60°00' E 029°43'0 0.0
2017-Jun-17 22:56N 60°00' E 029°43'0 0.0
2017-Jun-17 22:30N 60°00' E 029°43'0 0.0
2017-Jun-17 21:58N 60°00' E 029°43'0 0.0
2017-Jun-17 21:30N 60°00' E 029°43'0 0.0
2017-Jun-17 20:59N 60°00' E 029°43'0 0.0
2017-Jun-17 20:30N 60°00' E 029°43'0 0.0
2017-Jun-17 20:00N 60°00' E 029°43'0 0.0
2017-Jun-17 19:30N 60°00' E 029°43'0 0.0
2017-Jun-17 18:58N 60°00' E 029°43'0 0.0
2017-Jun-17 18:30N 60°00' E 029°43'0 0.0
2017-Jun-17 18:00N 60°00' E 029°43'0 0.0
2017-Jun-17 17:30N 60°00' E 029°43'0 0.0
2017-Jun-17 17:00N 60°00' E 029°43'0 0.0
2017-Jun-17 16:30N 60°00' E 029°43'0 0.0
2017-Jun-17 16:00N 60°00' E 029°43'0 0.0
2017-Jun-17 15:30N 60°00' E 029°43'0 0.0
2017-Jun-17 15:01N 60°00' E 029°43'0 0.0
2017-Jun-17 14:00N 60°00' E 029°43'0 0.0
2017-Jun-17 13:30N 60°00' E 029°43'0 0.0
2017-Jun-17 13:00N 60°00' E 029°43'0 0.0
2017-Jun-17 12:30N 60°00' E 029°43'0 0.0
2017-Jun-17 12:00N 60°00' E 029°43'0 0.0
2017-Jun-17 11:30N 60°00' E 029°43'0 0.0
2017-Jun-17 11:00N 60°00' E 029°43'0 0.0
2017-Jun-17 10:30N 60°00' E 029°43'0 0.0
2017-Jun-17 10:00N 60°00' E 029°43'0 0.0
2017-Jun-17 09:30N 60°00' E 029°43'0 0.0
2017-Jun-17 09:00N 60°00' E 029°43'0 0.0
2017-Jun-17 08:30N 60°00' E 029°43'0 0.0
2017-Jun-17 08:00N 60°00' E 029°43'0 0.0
2017-Jun-17 07:31N 60°00' E 029°43'0 0.0
2017-Jun-17 07:00N 60°00' E 029°43'0 0.0
2017-Jun-17 06:30N 60°00' E 029°43'0 0.0
2017-Jun-17 06:00N 60°00' E 029°43'0 0.0
2017-Jun-17 05:30N 60°00' E 029°43'0 0.0
2017-Jun-17 05:00N 60°00' E 029°43'0 0.0
2017-Jun-17 04:30N 60°00' E 029°43'0 0.0
2017-Jun-17 04:01N 60°00' E 029°43'0 0.0
2017-Jun-17 03:30N 60°00' E 029°43'0 0.0
2017-Jun-17 03:00N 60°00' E 029°43'0 0.0
2017-Jun-17 02:30N 60°00' E 029°43'0 0.0
2017-Jun-17 02:01N 60°00' E 029°43'0 0.0
2017-Jun-17 01:30N 60°00' E 029°43'0 0.0
2017-Jun-17 01:01N 60°00' E 029°43'0 0.0
2017-Jun-17 00:30N 60°00' E 029°43'0 0.0
2017-Jun-17 00:00N 60°00' E 029°43'0 0.0
2017-Jun-16 23:19N 60°00' E 029°43'0 0.0
2017-Jun-16 23:00N 60°00' E 029°43'0 0.0
2017-Jun-16 22:30N 60°00' E 029°43'0 0.0
2017-Jun-16 22:00N 60°00' E 029°43'0 0.0
2017-Jun-16 21:30N 60°00' E 029°43'0 0.0
2017-Jun-16 21:00N 60°00' E 029°43'0 0.0
2017-Jun-16 20:30N 60°00' E 029°43'0 0.0
2017-Jun-16 20:00N 60°00' E 029°43'0 0.0
2017-Jun-16 19:31N 60°00' E 029°43'0 0.0
2017-Jun-16 19:00N 60°00' E 029°43'0 0.0
2017-Jun-16 18:30N 60°00' E 029°43'0 0.0
2017-Jun-16 18:01N 60°00' E 029°43'0 0.0
2017-Jun-16 17:29N 60°00' E 029°43'0 0.0
2017-Jun-16 16:59N 60°00' E 029°43'0 0.0
2017-Jun-16 16:30N 60°00' E 029°43'0 0.0
2017-Jun-16 16:00N 60°00' E 029°43'0 0.0
2017-Jun-16 15:27N 60°00' E 029°43'0 0.0
2017-Jun-16 14:43N 60°00' E 029°43'0 0.0
2017-Jun-16 14:30N 60°00' E 029°43'0 0.0
2017-Jun-16 13:30N 60°00' E 029°43'0 0.0
2017-Jun-16 13:00N 60°00' E 029°43'0 0.0
2017-Jun-16 12:30N 60°00' E 029°43'0 0.0
2017-Jun-16 12:00N 60°00' E 029°43'0 0.0
2017-Jun-16 11:30N 60°00' E 029°43'0 0.0
2017-Jun-16 11:00N 60°00' E 029°43'0 0.0
2017-Jun-16 10:26N 60°00' E 029°43'0 0.0
2017-Jun-16 09:48N 60°00' E 029°43'0 0.0
2017-Jun-16 09:30N 60°00' E 029°43'0 0.0
2017-Jun-16 09:01N 60°00' E 029°43'0 0.0
2017-Jun-16 08:29N 60°00' E 029°43'0 0.0
2017-Jun-16 08:00N 60°00' E 029°43'0 0.0
2017-Jun-16 07:30N 60°00' E 029°43'0 0.0
2017-Jun-16 07:00N 60°00' E 029°43'0 0.0
2017-Jun-16 06:30N 60°00' E 029°43'0 0.0
2017-Jun-16 06:00N 60°00' E 029°43'0 0.0
2017-Jun-16 05:30N 60°00' E 029°43'0 0.0
2017-Jun-16 04:35N 60°00' E 029°43'0 0.0
2017-Jun-16 04:23N 60°00' E 029°43'0 0.0
2017-Jun-16 04:00N 60°00' E 029°43'0 0.0
2017-Jun-16 03:30N 60°00' E 029°43'0 0.0
2017-Jun-16 03:00N 60°00' E 029°43'0 0.0
2017-Jun-16 02:30N 60°00' E 029°43'0 0.0
2017-Jun-16 02:00N 60°00' E 029°43'0 0.0
2017-Jun-16 01:30N 60°00' E 029°43'0 0.0
2017-Jun-16 01:00N 60°00' E 029°43'0 0.0
2017-Jun-16 00:30N 60°00' E 029°43'0 0.0
2017-Jun-16 00:00N 60°00' E 029°43'0 0.0
2017-Jun-15 23:30N 60°00' E 029°43'0 0.0
2017-Jun-15 22:48N 60°00' E 029°43'0 0.0
2017-Jun-15 22:27N 60°00' E 029°43'0 0.0
2017-Jun-15 21:59N 60°00' E 029°43'0 0.0
2017-Jun-15 21:29N 60°00' E 029°43'0 0.0
2017-Jun-15 20:49N 60°00' E 029°43'0 0.0
2017-Jun-15 20:30N 60°00' E 029°43'0 0.0
2017-Jun-15 19:04N 60°00' E 029°43'0 0.0
2017-Jun-15 18:55N 60°00' E 029°43'0 0.0
2017-Jun-15 18:30N 60°00' E 029°43'0 0.0
2017-Jun-15 17:56N 60°00' E 029°43'0 0.0
2017-Jun-15 17:31N 60°00' E 029°43'0 0.0
2017-Jun-15 17:00N 60°00' E 029°43'0 0.0
2017-Jun-15 16:30N 60°00' E 029°43'0 0.0
2017-Jun-15 16:00N 60°00' E 029°43'0 0.0
2017-Jun-15 15:30N 60°00' E 029°43'0 0.0
2017-Jun-15 15:00N 60°00' E 029°43'0 0.0
2017-Jun-15 13:55N 60°00' E 029°43'0 0.0
2017-Jun-15 13:31N 60°00' E 029°43'0 0.0
2017-Jun-15 13:00N 60°00' E 029°43'0 0.0
2017-Jun-15 12:30N 60°00' E 029°43'0 0.0
2017-Jun-15 12:00N 60°00' E 029°43'0 0.0
2017-Jun-15 11:30N 60°00' E 029°43'0 0.0
2017-Jun-15 09:57N 60°00' E 029°43'0 0.0
2017-Jun-15 09:30N 60°00' E 029°43'0 0.0
2017-Jun-15 09:00N 60°00' E 029°43'0 0.0
2017-Jun-15 08:29N 60°00' E 029°43'0 0.0
2017-Jun-15 07:48N 60°00' E 029°43'0 0.0
2017-Jun-15 07:30N 60°00' E 029°43'0 0.0
2017-Jun-15 07:00N 60°00' E 029°43'0 0.0
2017-Jun-15 06:26N 60°00' E 029°43'0 0.0
2017-Jun-15 05:52N 60°00' E 029°43'0 0.0
2017-Jun-15 05:30N 60°00' E 029°43'0 0.0
2017-Jun-15 04:59N 60°00' E 029°43'0 0.0
2017-Jun-15 04:25N 60°00' E 029°43'0 0.0
2017-Jun-15 04:00N 60°00' E 029°43'0 0.0
2017-Jun-15 03:30N 60°00' E 029°43'0 0.0
2017-Jun-15 03:00N 60°00' E 029°43'0 0.0
2017-Jun-15 02:30N 60°00' E 029°43'0 0.0
2017-Jun-15 02:01N 60°00' E 029°43'0 0.0
2017-Jun-15 01:30N 60°00' E 029°43'0 0.0
2017-Jun-15 01:00N 60°00' E 029°43'0 0.0
2017-Jun-15 00:29N 60°00' E 029°43'  

Dump ship's entire track history